createdAt,value
2017-02-05T00:00:49.697Z,0
2017-02-05T00:01:58.409Z,0
2017-02-05T00:03:07.484Z,0
2017-02-05T00:04:16.187Z,0
2017-02-05T00:05:25.283Z,0
2017-02-05T00:06:33.977Z,0
2017-02-05T00:07:42.697Z,0
2017-02-05T00:08:51.404Z,0
2017-02-05T00:10:00.090Z,0
2017-02-05T00:11:08.781Z,0
2017-02-05T00:12:17.883Z,0
2017-02-05T00:13:26.582Z,0
2017-02-05T00:14:35.281Z,0
2017-02-05T00:15:43.971Z,0
2017-02-05T00:16:53.047Z,0
2017-02-05T00:18:01.764Z,0
2017-02-05T00:19:11.249Z,0
2017-02-05T00:20:19.943Z,0
2017-02-05T00:21:28.643Z,0
2017-02-05T00:22:37.747Z,0
2017-02-05T00:23:46.425Z,0
2017-02-05T00:24:55.923Z,0
2017-02-05T00:26:05.021Z,0
2017-02-05T00:27:13.705Z,0
2017-02-05T00:28:22.405Z,0
2017-02-05T00:29:31.484Z,0
2017-02-05T00:30:40.203Z,0
2017-02-05T00:31:48.906Z,0
2017-02-05T00:32:58.012Z,0
2017-02-05T00:34:06.716Z,0
2017-02-05T00:35:15.810Z,0
2017-02-05T00:36:24.532Z,0
2017-02-05T00:37:33.224Z,0
2017-02-05T00:38:41.932Z,0
2017-02-05T00:39:50.618Z,0
2017-02-05T00:40:59.307Z,0
2017-02-05T00:42:08.417Z,0
2017-02-05T00:43:17.108Z,0
2017-02-05T00:44:26.213Z,0
2017-02-05T00:45:34.898Z,0
2017-02-05T00:46:43.597Z,0
2017-02-05T00:47:52.308Z,0
2017-02-05T00:49:00.996Z,0
2017-02-05T00:50:10.080Z,0
2017-02-05T00:51:18.793Z,0
2017-02-05T00:52:27.484Z,0
2017-02-05T00:53:36.562Z,0
2017-02-05T00:54:45.277Z,0
2017-02-05T00:55:53.967Z,0
2017-02-05T00:57:02.658Z,0
2017-02-05T00:58:11.362Z,0
2017-02-05T00:59:20.046Z,0
2017-02-05T01:00:29.155Z,0
2017-02-05T01:01:38.275Z,0
2017-02-05T01:02:46.964Z,0
2017-02-05T01:03:56.069Z,0
2017-02-05T01:05:04.757Z,0
2017-02-05T01:06:13.435Z,0
2017-02-05T01:07:22.145Z,0
2017-02-05T01:08:31.246Z,0
2017-02-05T01:09:39.930Z,0
2017-02-05T01:10:49.029Z,0
2017-02-05T01:11:57.719Z,0
2017-02-05T01:13:07.608Z,0
2017-02-05T01:14:16.308Z,0
2017-02-05T01:15:24.987Z,0
2017-02-05T01:16:34.091Z,0
2017-02-05T01:17:43.584Z,0
2017-02-05T01:18:52.662Z,0
2017-02-05T01:20:01.361Z,0
2017-02-05T01:21:10.463Z,0
2017-02-05T01:22:19.140Z,0
2017-02-05T01:23:27.847Z,0
2017-02-05T01:24:37.340Z,0
2017-02-05T01:25:46.038Z,0
2017-02-05T01:26:55.125Z,0
2017-02-05T01:28:03.813Z,0
2017-02-05T01:29:12.513Z,0
2017-02-05T01:30:21.609Z,0
2017-02-05T01:31:30.295Z,0
2017-02-05T01:32:38.992Z,0
2017-02-05T01:33:47.702Z,0
2017-02-05T01:34:56.384Z,0
2017-02-05T01:36:05.473Z,0
2017-02-05T01:37:14.584Z,0
2017-02-05T01:38:23.668Z,0
2017-02-05T01:39:32.751Z,0
2017-02-05T01:40:41.456Z,0
2017-02-05T01:41:50.156Z,0
2017-02-05T01:42:59.229Z,0
2017-02-05T01:44:07.936Z,0
2017-02-05T01:45:16.631Z,0
2017-02-05T01:46:25.315Z,0
2017-02-05T01:47:34.414Z,0
2017-02-05T01:48:43.904Z,0
2017-02-05T01:49:52.582Z,0
2017-02-05T01:51:01.276Z,0
2017-02-05T01:52:09.988Z,0
2017-02-05T01:53:19.060Z,0
2017-02-05T01:54:27.753Z,0
2017-02-05T01:55:36.453Z,0
2017-02-05T01:56:45.542Z,0
2017-02-05T01:57:54.648Z,0
2017-02-05T01:59:04.118Z,0
2017-02-05T02:00:12.826Z,0
2017-02-05T02:01:22.333Z,0
2017-02-05T02:02:31.026Z,0
2017-02-05T02:03:40.125Z,0
2017-02-05T02:04:49.217Z,0
2017-02-05T02:05:57.906Z,0
2017-02-05T02:07:06.584Z,0
2017-02-05T02:08:15.299Z,0
2017-02-05T02:09:24.383Z,0
2017-02-05T02:10:33.073Z,0
2017-02-05T02:11:42.173Z,0
2017-02-05T02:12:51.260Z,0
2017-02-05T02:13:59.975Z,0
2017-02-05T02:15:09.475Z,0
2017-02-05T02:16:18.553Z,0
2017-02-05T02:17:27.648Z,0
2017-02-05T02:18:36.375Z,0
2017-02-05T02:19:45.064Z,0
2017-02-05T02:20:53.778Z,0
2017-02-05T02:22:02.472Z,0
2017-02-05T02:23:11.160Z,0
2017-02-05T02:24:19.856Z,0
2017-02-05T02:25:28.551Z,0
2017-02-05T02:26:37.637Z,0
2017-02-05T02:27:46.344Z,0
2017-02-05T02:28:55.024Z,0
2017-02-05T02:30:03.732Z,0
2017-02-05T02:31:12.835Z,0
2017-02-05T02:32:21.913Z,0
2017-02-05T02:33:31.411Z,0
2017-02-05T02:34:40.511Z,0
2017-02-05T02:35:49.186Z,0
2017-02-05T02:36:58.676Z,0
2017-02-05T02:38:07.772Z,0
2017-02-05T02:39:16.463Z,0
2017-02-05T02:40:25.152Z,0
2017-02-05T02:41:33.842Z,0
2017-02-05T02:42:42.549Z,0
2017-02-05T02:43:51.247Z,0
2017-02-05T02:44:59.931Z,0
2017-02-05T02:46:08.624Z,0
2017-02-05T02:47:17.734Z,0
2017-02-05T02:48:26.819Z,0
2017-02-05T02:49:35.900Z,0
2017-02-05T02:50:44.647Z,0
2017-02-05T02:51:53.343Z,0
2017-02-05T02:53:02.032Z,0
2017-02-05T02:54:10.760Z,0
2017-02-05T02:55:19.453Z,0
2017-02-05T02:56:28.947Z,0
2017-02-05T02:57:38.052Z,0
2017-02-05T02:58:47.153Z,0
2017-02-05T02:59:55.849Z,0
2017-02-05T03:01:04.544Z,0
2017-02-05T03:02:13.224Z,0
2017-02-05T03:03:21.966Z,0
2017-02-05T03:04:30.653Z,0
2017-02-05T03:05:39.727Z,0
2017-02-05T03:06:48.431Z,0
2017-02-05T03:07:57.132Z,0
2017-02-05T03:09:06.212Z,0
2017-02-05T03:10:15.303Z,0
2017-02-05T03:11:24.390Z,0
2017-02-05T03:12:33.096Z,0
2017-02-05T03:13:41.791Z,0
2017-02-05T03:14:50.473Z,0
2017-02-05T03:15:59.188Z,0
2017-02-05T03:17:08.281Z,0
2017-02-05T03:18:16.970Z,0
2017-02-05T03:19:26.464Z,0
2017-02-05T03:20:35.163Z,0
2017-02-05T03:21:44.245Z,0
2017-02-05T03:22:52.946Z,0
2017-02-05T03:24:01.647Z,0
2017-02-05T03:25:10.330Z,0
2017-02-05T03:26:19.075Z,0
2017-02-05T03:27:28.550Z,0
2017-02-05T03:28:37.244Z,0
2017-02-05T03:29:45.945Z,0
2017-02-05T03:30:54.629Z,0
2017-02-05T03:32:03.723Z,0
2017-02-05T03:33:12.833Z,0
2017-02-05T03:34:21.520Z,0
2017-02-05T03:35:30.597Z,0
2017-02-05T03:36:39.294Z,0
2017-02-05T03:37:48.376Z,0
2017-02-05T03:38:57.065Z,0
2017-02-05T03:40:06.164Z,0
2017-02-05T03:41:14.854Z,0
2017-02-05T03:42:23.547Z,0
2017-02-05T03:43:32.247Z,0
2017-02-05T03:44:40.943Z,0
2017-02-05T03:45:49.651Z,0
2017-02-05T03:46:58.349Z,0
2017-02-05T03:48:07.446Z,0
2017-02-05T03:49:16.532Z,0
2017-02-05T03:50:25.230Z,0
2017-02-05T03:51:33.936Z,0
2017-02-05T03:52:43.007Z,0
2017-02-05T03:53:52.098Z,0
2017-02-05T03:55:00.790Z,0
2017-02-05T03:56:09.487Z,0
2017-02-05T03:57:18.183Z,0
2017-02-05T03:58:27.661Z,0
2017-02-05T03:59:36.351Z,0
2017-02-05T04:00:45.065Z,0
2017-02-05T04:01:53.741Z,0
2017-02-05T04:03:02.435Z,0
2017-02-05T04:04:11.133Z,0
2017-02-05T04:05:20.248Z,0
2017-02-05T04:06:28.936Z,0
2017-02-05T04:07:37.645Z,0
2017-02-05T04:08:46.735Z,0
2017-02-05T04:09:55.427Z,0
2017-02-05T04:11:04.116Z,0
2017-02-05T04:12:12.807Z,0
2017-02-05T04:13:21.514Z,0
2017-02-05T04:14:30.191Z,0
2017-02-05T04:15:38.874Z,0
2017-02-05T04:16:47.974Z,0
2017-02-05T04:17:56.664Z,0
2017-02-05T04:19:05.735Z,0
2017-02-05T04:20:14.872Z,0
2017-02-05T04:21:23.567Z,0
2017-02-05T04:22:32.245Z,0
2017-02-05T04:23:41.343Z,0
2017-02-05T04:24:50.027Z,0
2017-02-05T04:25:58.725Z,0
2017-02-05T04:27:07.418Z,0
2017-02-05T04:28:16.102Z,0
2017-02-05T04:29:25.207Z,0
2017-02-05T04:30:33.905Z,0
2017-02-05T04:31:42.589Z,0
2017-02-05T04:32:51.677Z,0
2017-02-05T04:34:00.375Z,0
2017-02-05T04:35:09.454Z,0
2017-02-05T04:36:18.157Z,0
2017-02-05T04:37:27.261Z,0
2017-02-05T04:38:36.739Z,0
2017-02-05T04:39:45.834Z,0
2017-02-05T04:40:54.520Z,0
2017-02-05T04:42:03.608Z,0
2017-02-05T04:43:12.312Z,0
2017-02-05T04:44:21.389Z,0
2017-02-05T04:45:30.075Z,0
2017-02-05T04:46:38.785Z,0
2017-02-05T04:47:47.468Z,0
2017-02-05T04:48:56.165Z,0
2017-02-05T04:50:04.868Z,0
2017-02-05T04:51:13.554Z,0
2017-02-05T04:52:22.628Z,0
2017-02-05T04:53:31.327Z,0
2017-02-05T04:54:40.422Z,0
2017-02-05T04:55:49.528Z,0
2017-02-05T04:56:58.601Z,0
2017-02-05T04:58:08.082Z,0
2017-02-05T04:59:16.787Z,0
2017-02-05T05:00:26.661Z,0
2017-02-05T05:01:35.748Z,0
2017-02-05T05:02:44.448Z,0
2017-02-05T05:03:53.133Z,0
2017-02-05T05:05:01.817Z,0
2017-02-05T05:06:10.532Z,0
2017-02-05T05:07:19.232Z,0
2017-02-05T05:08:27.927Z,0
2017-02-05T05:09:37.006Z,0
2017-02-05T05:10:45.692Z,0
2017-02-05T05:11:54.392Z,0
2017-02-05T05:13:03.084Z,0
2017-02-05T05:14:12.155Z,0
2017-02-05T05:15:20.859Z,0
2017-02-05T05:16:29.956Z,0
2017-02-05T05:17:38.641Z,0
2017-02-05T05:18:47.343Z,0
2017-02-05T05:19:56.049Z,0
2017-02-05T05:21:04.725Z,0
2017-02-05T05:22:13.821Z,0
2017-02-05T05:23:23.685Z,0
2017-02-05T05:24:32.387Z,0
2017-02-05T05:25:41.089Z,0
2017-02-05T05:26:49.761Z,0
2017-02-05T05:27:58.463Z,0
2017-02-05T05:29:07.564Z,0
2017-02-05T05:30:16.250Z,0
2017-02-05T05:31:24.942Z,0
2017-02-05T05:32:33.639Z,0
2017-02-05T05:33:42.328Z,0
2017-02-05T05:34:51.046Z,0
2017-02-05T05:35:59.756Z,0
2017-02-05T05:37:08.440Z,0
2017-02-05T05:38:17.133Z,0
2017-02-05T05:39:26.240Z,0
2017-02-05T05:40:34.924Z,0
2017-02-05T05:41:43.608Z,0
2017-02-05T05:42:52.309Z,0
2017-02-05T05:44:01.404Z,0
2017-02-05T05:45:10.477Z,0
2017-02-05T05:46:19.577Z,0
2017-02-05T05:47:28.665Z,0
2017-02-05T05:48:37.749Z,0
2017-02-05T05:49:46.437Z,0
2017-02-05T05:50:55.151Z,0
2017-02-05T05:52:03.832Z,0
2017-02-05T05:53:12.528Z,0
2017-02-05T05:54:21.607Z,0
2017-02-05T05:55:31.093Z,0
2017-02-05T05:56:40.192Z,0
2017-02-05T05:57:48.874Z,0
2017-02-05T05:58:57.575Z,0
2017-02-05T06:00:06.275Z,0
2017-02-05T06:01:14.960Z,0
2017-02-05T06:02:23.654Z,0
2017-02-05T06:03:32.354Z,0
2017-02-05T06:04:41.046Z,0
2017-02-05T06:05:49.726Z,0
2017-02-05T06:06:58.425Z,0
2017-02-05T06:08:07.514Z,0
2017-02-05T06:09:16.216Z,0
2017-02-05T06:10:24.903Z,0
2017-02-05T06:11:33.593Z,0
2017-02-05T06:12:42.690Z,0
2017-02-05T06:13:51.378Z,0
2017-02-05T06:15:00.068Z,0
2017-02-05T06:16:08.765Z,0
2017-02-05T06:17:17.459Z,0
2017-02-05T06:18:26.136Z,0
2017-02-05T06:19:34.847Z,0
2017-02-05T06:20:43.542Z,0
2017-02-05T06:21:52.234Z,0
2017-02-05T06:23:01.326Z,0
2017-02-05T06:24:10.005Z,0
2017-02-05T06:25:18.706Z,0
2017-02-05T06:26:27.394Z,0
2017-02-05T06:27:36.071Z,0
2017-02-05T06:28:44.779Z,0
2017-02-05T06:29:53.866Z,0
2017-02-05T06:31:02.551Z,0
2017-02-05T06:32:11.637Z,0
2017-02-05T06:33:20.745Z,0
2017-02-05T06:34:30.204Z,0
2017-02-05T06:35:38.904Z,4
2017-02-05T06:36:47.584Z,0
2017-02-05T06:37:56.296Z,4
2017-02-05T06:39:05.398Z,4
2017-02-05T06:40:14.073Z,4
2017-02-05T06:41:22.773Z,4
2017-02-05T06:42:31.470Z,4
2017-02-05T06:43:40.604Z,4
2017-02-05T06:44:49.293Z,4
2017-02-05T06:45:58.002Z,8
2017-02-05T06:47:06.691Z,8
2017-02-05T06:48:15.393Z,12
2017-02-05T06:49:24.088Z,16
2017-02-05T06:50:32.779Z,16
2017-02-05T06:51:41.878Z,20
2017-02-05T06:52:50.984Z,24
2017-02-05T06:53:59.697Z,28
2017-02-05T06:55:08.800Z,32
2017-02-05T06:56:17.879Z,36
2017-02-05T06:57:26.569Z,44
2017-02-05T06:58:35.269Z,52
2017-02-05T06:59:43.956Z,56
2017-02-05T07:00:52.643Z,60
2017-02-05T07:02:01.339Z,68
2017-02-05T07:03:10.440Z,76
2017-02-05T07:04:19.127Z,84
2017-02-05T07:05:27.828Z,88
2017-02-05T07:06:36.521Z,92
2017-02-05T07:07:45.232Z,88
2017-02-05T07:08:54.328Z,88
2017-02-05T07:10:03.411Z,84
2017-02-05T07:11:12.106Z,80
2017-02-05T07:12:21.592Z,80
2017-02-05T07:13:30.290Z,84
2017-02-05T07:14:38.986Z,80
2017-02-05T07:15:47.682Z,80
2017-02-05T07:16:56.359Z,84
2017-02-05T07:18:05.056Z,84
2017-02-05T07:19:13.755Z,84
2017-02-05T07:20:22.838Z,84
2017-02-05T07:21:31.920Z,84
2017-02-05T07:22:40.602Z,80
2017-02-05T07:23:49.711Z,84
2017-02-05T07:24:58.408Z,84
2017-02-05T07:26:07.494Z,92
2017-02-05T07:27:16.188Z,88
2017-02-05T07:28:24.902Z,88
2017-02-05T07:29:33.582Z,92
2017-02-05T07:30:42.275Z,104
2017-02-05T07:31:51.380Z,116
2017-02-05T07:33:00.067Z,112
2017-02-05T07:34:08.762Z,120
2017-02-05T07:35:17.862Z,120
2017-02-05T07:36:26.556Z,124
2017-02-05T07:37:35.235Z,128
2017-02-05T07:38:43.947Z,132
2017-02-05T07:39:53.426Z,136
2017-02-05T07:41:02.127Z,148
2017-02-05T07:42:10.824Z,164
2017-02-05T07:43:19.532Z,180
2017-02-05T07:44:28.214Z,188
2017-02-05T07:45:37.309Z,204
2017-02-05T07:46:46.010Z,216
2017-02-05T07:47:54.694Z,236
2017-02-05T07:49:03.398Z,248
2017-02-05T07:50:12.089Z,248
2017-02-05T07:51:20.799Z,260
2017-02-05T07:52:29.904Z,276
2017-02-05T07:53:38.588Z,280
2017-02-05T07:54:47.686Z,292
2017-02-05T07:55:56.381Z,304
2017-02-05T07:57:05.066Z,316
2017-02-05T07:58:13.761Z,328
2017-02-05T07:59:22.460Z,332
2017-02-05T08:00:31.138Z,336
2017-02-05T08:01:39.831Z,340
2017-02-05T08:02:48.531Z,340
2017-02-05T08:03:58.412Z,352
2017-02-05T08:05:07.511Z,372
2017-02-05T08:06:16.193Z,396
2017-02-05T08:07:24.891Z,420
2017-02-05T08:08:33.993Z,440
2017-02-05T08:09:43.077Z,452
2017-02-05T08:10:51.765Z,452
2017-02-05T08:12:00.866Z,440
2017-02-05T08:13:09.550Z,444
2017-02-05T08:14:18.244Z,464
2017-02-05T08:15:26.948Z,504
2017-02-05T08:16:35.637Z,528
2017-02-05T08:17:44.324Z,536
2017-02-05T08:18:53.432Z,536
2017-02-05T08:20:02.521Z,528
2017-02-05T08:21:11.634Z,536
2017-02-05T08:22:20.316Z,536
2017-02-05T08:23:29.011Z,520
2017-02-05T08:24:37.709Z,524
2017-02-05T08:25:46.407Z,544
2017-02-05T08:26:55.080Z,572
2017-02-05T08:28:04.183Z,600
2017-02-05T08:29:13.284Z,608
2017-02-05T08:30:22.362Z,584
2017-02-05T08:31:31.062Z,560
2017-02-05T08:32:40.165Z,580
2017-02-05T08:33:48.845Z,588
2017-02-05T08:34:57.944Z,600
2017-02-05T08:36:06.656Z,600
2017-02-05T08:37:15.730Z,612
2017-02-05T08:38:24.425Z,628
2017-02-05T08:39:33.127Z,644
2017-02-05T08:40:41.822Z,668
2017-02-05T08:41:50.508Z,704
2017-02-05T08:42:59.219Z,732
2017-02-05T08:44:07.910Z,744
2017-02-05T08:45:16.604Z,768
2017-02-05T08:46:25.316Z,800
2017-02-05T08:47:34.007Z,860
2017-02-05T08:48:43.104Z,952
2017-02-05T08:49:51.791Z,1024
2017-02-05T08:51:00.911Z,1044
2017-02-05T08:52:10.015Z,1024
2017-02-05T08:53:18.711Z,1044
2017-02-05T08:54:27.397Z,1072
2017-02-05T08:55:36.892Z,1044
2017-02-05T08:56:45.588Z,1016
2017-02-05T08:57:54.272Z,1036
2017-02-05T08:59:02.975Z,1012
2017-02-05T09:00:11.671Z,992
2017-02-05T09:01:20.353Z,1008
2017-02-05T09:02:29.053Z,1008
2017-02-05T09:03:37.737Z,1012
2017-02-05T09:04:46.845Z,1060
2017-02-05T09:05:55.545Z,1108
2017-02-05T09:07:05.014Z,1160
2017-02-05T09:08:14.112Z,1204
2017-02-05T09:09:22.808Z,1220
2017-02-05T09:10:31.499Z,1244
2017-02-05T09:11:40.196Z,1284
2017-02-05T09:12:48.905Z,1320
2017-02-05T09:13:57.981Z,1356
2017-02-05T09:15:07.077Z,1344
2017-02-05T09:16:15.780Z,1356
2017-02-05T09:17:24.464Z,1340
2017-02-05T09:18:33.572Z,1288
2017-02-05T09:19:42.253Z,1228
2017-02-05T09:20:51.343Z,1124
2017-02-05T09:22:00.050Z,1176
2017-02-05T09:23:09.534Z,1108
2017-02-05T09:24:18.235Z,1180
2017-02-05T09:25:26.942Z,1180
2017-02-05T09:26:36.035Z,1200
2017-02-05T09:27:44.719Z,1208
2017-02-05T09:28:53.425Z,1340
2017-02-05T09:30:02.518Z,1488
2017-02-05T09:31:11.209Z,1592
2017-02-05T09:32:19.946Z,1680
2017-02-05T09:33:28.642Z,1716
2017-02-05T09:34:38.112Z,1748
2017-02-05T09:35:46.823Z,1760
2017-02-05T09:36:55.524Z,1772
2017-02-05T09:38:04.614Z,1804
2017-02-05T09:39:13.309Z,1904
2017-02-05T09:40:22.020Z,2040
2017-02-05T09:41:31.492Z,2156
2017-02-05T09:42:40.182Z,2276
2017-02-05T09:43:49.281Z,2352
2017-02-05T09:44:57.969Z,2332
2017-02-05T09:46:06.660Z,2296
2017-02-05T09:47:15.363Z,2100
2017-02-05T09:48:24.456Z,2324
2017-02-05T09:49:33.167Z,2324
2017-02-05T09:50:42.242Z,2540
2017-02-05T09:51:50.933Z,2708
2017-02-05T09:52:59.635Z,2752
2017-02-05T09:54:08.324Z,2796
2017-02-05T09:55:17.014Z,2800
2017-02-05T09:56:26.137Z,2812
2017-02-05T09:57:34.837Z,2820
2017-02-05T09:58:43.517Z,2896
2017-02-05T09:59:52.621Z,2984
2017-02-05T10:01:01.327Z,3008
2017-02-05T10:02:10.821Z,2996
2017-02-05T10:03:19.509Z,2976
2017-02-05T10:04:28.198Z,2916
2017-02-05T10:05:36.906Z,2780
2017-02-05T10:06:45.995Z,2668
2017-02-05T10:07:54.692Z,2628
2017-02-05T10:09:04.188Z,2532
2017-02-05T10:10:12.891Z,2548
2017-02-05T10:11:21.576Z,2580
2017-02-05T10:12:30.702Z,2616
2017-02-05T10:13:39.406Z,2672
2017-02-05T10:14:48.116Z,2776
2017-02-05T10:15:57.213Z,2924
2017-02-05T10:17:06.291Z,3040
2017-02-05T10:18:15.004Z,3088
2017-02-05T10:19:24.108Z,3128
2017-02-05T10:20:32.791Z,3192
2017-02-05T10:21:41.493Z,3172
2017-02-05T10:22:50.189Z,3184
2017-02-05T10:23:58.878Z,3216
2017-02-05T10:25:07.615Z,3216
2017-02-05T10:26:16.334Z,3244
2017-02-05T10:27:25.412Z,3276
2017-02-05T10:28:34.110Z,3268
2017-02-05T10:29:42.812Z,3208
2017-02-05T10:30:51.500Z,3152
2017-02-05T10:32:00.208Z,3004
2017-02-05T10:33:08.901Z,2784
2017-02-05T10:34:17.600Z,2692
2017-02-05T10:35:26.308Z,2636
2017-02-05T10:36:34.998Z,2620
2017-02-05T10:37:43.689Z,2640
2017-02-05T10:38:52.391Z,2736
2017-02-05T10:40:01.089Z,2804
2017-02-05T10:41:09.780Z,2832
2017-02-05T10:42:18.884Z,2868
2017-02-05T10:43:27.572Z,2932
2017-02-05T10:44:36.254Z,2956
2017-02-05T10:45:44.961Z,3052
2017-02-05T10:46:53.653Z,3140
2017-02-05T10:48:02.358Z,3124
2017-02-05T10:49:11.041Z,3092
2017-02-05T10:50:19.732Z,3092
2017-02-05T10:51:28.444Z,3140
2017-02-05T10:52:37.144Z,3100
2017-02-05T10:53:46.226Z,2888
2017-02-05T10:54:54.936Z,2748
2017-02-05T10:56:03.639Z,2792
2017-02-05T10:57:12.324Z,2916
2017-02-05T10:58:21.040Z,3048
2017-02-05T10:59:30.148Z,3212
2017-02-05T11:00:38.881Z,3220
2017-02-05T11:01:47.577Z,3128
2017-02-05T11:02:56.277Z,3116
2017-02-05T11:04:05.381Z,3096
2017-02-05T11:05:14.080Z,3056
2017-02-05T11:06:22.774Z,3084
2017-02-05T11:07:31.881Z,3152
2017-02-05T11:08:40.976Z,3180
2017-02-05T11:09:49.663Z,3212
2017-02-05T11:10:58.368Z,3404
2017-02-05T11:12:07.075Z,3308
2017-02-05T11:13:16.148Z,3312
2017-02-05T11:14:24.842Z,3228
2017-02-05T11:15:33.545Z,3260
2017-02-05T11:16:42.250Z,3424
2017-02-05T11:17:50.953Z,3500
2017-02-05T11:18:59.640Z,3552
2017-02-05T11:20:08.338Z,3652
2017-02-05T11:21:17.442Z,3584
2017-02-05T11:22:26.119Z,3444
2017-02-05T11:23:35.218Z,3352
2017-02-05T11:24:44.314Z,3412
2017-02-05T11:25:53.009Z,3556
2017-02-05T11:27:01.691Z,3668
2017-02-05T11:28:10.412Z,3628
2017-02-05T11:29:19.915Z,3656
2017-02-05T11:30:28.597Z,3720
2017-02-05T11:31:37.298Z,3748
2017-02-05T11:32:46.389Z,3716
2017-02-05T11:33:55.074Z,3612
2017-02-05T11:35:03.816Z,3396
2017-02-05T11:36:12.916Z,3252
2017-02-05T11:37:22.006Z,3528
2017-02-05T11:38:30.704Z,3648
2017-02-05T11:39:39.411Z,3648
2017-02-05T11:40:48.101Z,3520
2017-02-05T11:41:56.796Z,3376
2017-02-05T11:43:05.912Z,3608
2017-02-05T11:44:14.600Z,3808
2017-02-05T11:45:23.307Z,3800
2017-02-05T11:46:32.391Z,3444
2017-02-05T11:47:41.110Z,3212
2017-02-05T11:48:50.215Z,2816
2017-02-05T11:49:59.302Z,2832
2017-02-05T11:51:08.793Z,2832
2017-02-05T11:52:17.504Z,2884
2017-02-05T11:53:26.198Z,2928
2017-02-05T11:54:34.901Z,2996
2017-02-05T11:55:44.005Z,2996
2017-02-05T11:56:52.698Z,2968
2017-02-05T11:58:01.379Z,3012
2017-02-05T11:59:10.085Z,2912
2017-02-05T12:00:18.785Z,2872
2017-02-05T12:01:27.496Z,3000
2017-02-05T12:02:36.185Z,2996
2017-02-05T12:03:44.875Z,2780
2017-02-05T12:04:53.584Z,2920
2017-02-05T12:06:02.283Z,3204
2017-02-05T12:07:10.970Z,3264
2017-02-05T12:08:19.675Z,3480
2017-02-05T12:09:28.377Z,3892
2017-02-05T12:10:37.061Z,3268
2017-02-05T12:11:46.168Z,3648
2017-02-05T12:12:55.279Z,3812
2017-02-05T12:14:04.377Z,3840
2017-02-05T12:15:13.070Z,3800
2017-02-05T12:16:22.558Z,3748
2017-02-05T12:17:31.274Z,3512
2017-02-05T12:18:40.366Z,3244
2017-02-05T12:19:49.057Z,2968
2017-02-05T12:20:57.760Z,2732
2017-02-05T12:22:06.473Z,2624
2017-02-05T12:23:15.166Z,2676
2017-02-05T12:24:23.873Z,2844
2017-02-05T12:25:32.584Z,3268
2017-02-05T12:26:41.273Z,3344
2017-02-05T12:27:49.959Z,3096
2017-02-05T12:28:59.455Z,3444
2017-02-05T12:30:08.162Z,3324
2017-02-05T12:31:16.865Z,3188
2017-02-05T12:32:25.553Z,2704
2017-02-05T12:33:34.255Z,2556
2017-02-05T12:34:42.968Z,2556
2017-02-05T12:35:52.047Z,2592
2017-02-05T12:37:00.736Z,2732
2017-02-05T12:38:09.445Z,2876
2017-02-05T12:39:18.134Z,3148
2017-02-05T12:40:26.829Z,3380
2017-02-05T12:41:35.543Z,3464
2017-02-05T12:42:44.632Z,3524
2017-02-05T12:43:53.330Z,3244
2017-02-05T12:45:02.819Z,3352
2017-02-05T12:46:11.521Z,3368
2017-02-05T12:47:20.235Z,3460
2017-02-05T12:48:28.922Z,3592
2017-02-05T12:49:37.610Z,3532
2017-02-05T12:50:46.325Z,3448
2017-02-05T12:51:55.024Z,3508
2017-02-05T12:53:03.719Z,3248
2017-02-05T12:54:13.224Z,3108
2017-02-05T12:55:21.930Z,3052
2017-02-05T12:56:31.015Z,2964
2017-02-05T12:57:39.726Z,2788
2017-02-05T12:58:48.422Z,2904
2017-02-05T12:59:57.526Z,3008
2017-02-05T13:01:06.220Z,3060
2017-02-05T13:02:14.906Z,2732
2017-02-05T13:03:23.619Z,2812
2017-02-05T13:04:32.724Z,3332
2017-02-05T13:05:41.403Z,3240
2017-02-05T13:06:50.504Z,3340
2017-02-05T13:07:59.995Z,3856
2017-02-05T13:09:08.729Z,3784
2017-02-05T13:10:17.429Z,3728
2017-02-05T13:11:26.135Z,3544
2017-02-05T13:12:35.213Z,3416
2017-02-05T13:13:43.913Z,3404
2017-02-05T13:14:53.000Z,3412
2017-02-05T13:16:01.710Z,3480
2017-02-05T13:17:10.417Z,3504
2017-02-05T13:18:19.885Z,3488
2017-02-05T13:19:28.581Z,3472
2017-02-05T13:20:37.297Z,3268
2017-02-05T13:21:46.777Z,3004
2017-02-05T13:22:55.474Z,2828
2017-02-05T13:24:04.186Z,2704
2017-02-05T13:25:13.265Z,2640
2017-02-05T13:26:21.955Z,2808
2017-02-05T13:27:30.664Z,2860
2017-02-05T13:28:39.761Z,2852
2017-02-05T13:29:48.454Z,2784
2017-02-05T13:30:57.565Z,2812
2017-02-05T13:32:06.267Z,2680
2017-02-05T13:33:14.953Z,2672
2017-02-05T13:34:24.091Z,2652
2017-02-05T13:35:32.793Z,2712
2017-02-05T13:36:41.480Z,2716
2017-02-05T13:37:51.234Z,2808
2017-02-05T13:38:59.947Z,2904
2017-02-05T13:40:08.641Z,2920
2017-02-05T13:41:17.338Z,3032
2017-02-05T13:42:26.040Z,3092
2017-02-05T13:43:34.737Z,3144
2017-02-05T13:44:43.439Z,3152
2017-02-05T13:45:52.519Z,3020
2017-02-05T13:47:01.621Z,2888
2017-02-05T13:48:10.338Z,2796
2017-02-05T13:49:19.017Z,2800
2017-02-05T13:50:27.713Z,2964
2017-02-05T13:51:36.428Z,3172
2017-02-05T13:52:45.126Z,3340
2017-02-05T13:53:53.811Z,3468
2017-02-05T13:55:02.521Z,3456
2017-02-05T13:56:11.217Z,3356
2017-02-05T13:57:19.918Z,3228
2017-02-05T13:58:28.606Z,3152
2017-02-05T13:59:37.310Z,3092
2017-02-05T14:00:46.414Z,3004
2017-02-05T14:01:55.500Z,2824
2017-02-05T14:03:04.970Z,2720
2017-02-05T14:04:14.084Z,2624
2017-02-05T14:05:22.782Z,2448
2017-02-05T14:06:31.458Z,2256
2017-02-05T14:07:40.971Z,2180
2017-02-05T14:08:49.688Z,2112
2017-02-05T14:09:59.156Z,2048
2017-02-05T14:11:07.864Z,1912
2017-02-05T14:12:17.000Z,1892
2017-02-05T14:13:25.707Z,1920
2017-02-05T14:14:34.398Z,2012
2017-02-05T14:15:43.082Z,2028
2017-02-05T14:16:51.798Z,1952
2017-02-05T14:18:00.509Z,1888
2017-02-05T14:19:09.192Z,1848
2017-02-05T14:20:17.888Z,1852
2017-02-05T14:21:27.395Z,1816
2017-02-05T14:22:36.082Z,1780
2017-02-05T14:23:44.781Z,1736
2017-02-05T14:24:53.489Z,1716
2017-02-05T14:26:02.172Z,1660
2017-02-05T14:27:11.264Z,1632
2017-02-05T14:28:20.339Z,1604
2017-02-05T14:29:29.038Z,1536
2017-02-05T14:30:37.736Z,1488
2017-02-05T14:31:47.217Z,1488
2017-02-05T14:32:56.309Z,1472
2017-02-05T14:34:05.813Z,1424
2017-02-05T14:35:14.890Z,1392
2017-02-05T14:36:23.592Z,1404
2017-02-05T14:37:32.298Z,1432
2017-02-05T14:38:40.993Z,1452
2017-02-05T14:39:49.693Z,1468
2017-02-05T14:40:58.387Z,1464
2017-02-05T14:42:07.491Z,1440
2017-02-05T14:43:16.602Z,1404
2017-02-05T14:44:25.284Z,1368
2017-02-05T14:45:33.982Z,1332
2017-02-05T14:46:42.699Z,1320
2017-02-05T14:47:51.397Z,1328
2017-02-05T14:49:00.083Z,1336
2017-02-05T14:50:08.796Z,1308
2017-02-05T14:51:17.881Z,1316
2017-02-05T14:52:26.972Z,1348
2017-02-05T14:53:36.068Z,1368
2017-02-05T14:54:45.164Z,1388
2017-02-05T14:55:54.266Z,1392
2017-02-05T14:57:02.953Z,1388
2017-02-05T14:58:12.028Z,1396
2017-02-05T14:59:21.136Z,1388
2017-02-05T15:00:30.627Z,1360
2017-02-05T15:01:39.317Z,1324
2017-02-05T15:02:48.020Z,1292
2017-02-05T15:03:56.727Z,1264
2017-02-05T15:05:06.191Z,1252
2017-02-05T15:06:14.893Z,1248
2017-02-05T15:07:23.992Z,1248
2017-02-05T15:08:33.076Z,1248
2017-02-05T15:09:42.174Z,1252
2017-02-05T15:10:50.860Z,1264
2017-02-05T15:11:59.974Z,1292
2017-02-05T15:13:09.071Z,1312
2017-02-05T15:14:18.551Z,1300
2017-02-05T15:15:28.445Z,1264
2017-02-05T15:16:37.151Z,1228
2017-02-05T15:17:46.223Z,1192
2017-02-05T15:18:54.923Z,1164
2017-02-05T15:20:03.636Z,1144
2017-02-05T15:21:12.322Z,1100
2017-02-05T15:22:21.417Z,1036
2017-02-05T15:23:30.519Z,964
2017-02-05T15:24:39.207Z,904
2017-02-05T15:25:48.289Z,872
2017-02-05T15:26:57.399Z,856
2017-02-05T15:28:06.485Z,844
2017-02-05T15:29:15.172Z,820
2017-02-05T15:30:24.696Z,808
2017-02-05T15:31:33.398Z,792
2017-02-05T15:32:42.078Z,772
2017-02-05T15:33:50.828Z,740
2017-02-05T15:34:59.930Z,688
2017-02-05T15:36:08.618Z,632
2017-02-05T15:37:17.712Z,576
2017-02-05T15:38:26.418Z,528
2017-02-05T15:39:35.113Z,496
2017-02-05T15:40:43.814Z,464
2017-02-05T15:41:52.503Z,444
2017-02-05T15:43:01.208Z,428
2017-02-05T15:44:09.910Z,416
2017-02-05T15:45:18.595Z,404
2017-02-05T15:46:27.686Z,400
2017-02-05T15:47:36.406Z,392
2017-02-05T15:48:45.084Z,376
2017-02-05T15:49:53.777Z,364
2017-02-05T15:51:03.275Z,356
2017-02-05T15:52:11.972Z,340
2017-02-05T15:53:20.668Z,332
2017-02-05T15:54:29.765Z,324
2017-02-05T15:55:38.465Z,316
2017-02-05T15:56:47.170Z,312
2017-02-05T15:57:55.854Z,300
2017-02-05T15:59:04.557Z,284
2017-02-05T16:00:13.267Z,268
2017-02-05T16:01:21.959Z,252
2017-02-05T16:02:31.043Z,236
2017-02-05T16:03:40.155Z,220
2017-02-05T16:04:48.856Z,208